sensor_id;sensor_type;location;lat;lon;timestamp;pressure;altitude;pressure_sealevel;temperature
63588;BMP280;49966;46.896;18.004;2023-09-18T00:02:06;100502.72;;;17.22
63588;BMP280;49966;46.896;18.004;2023-09-18T00:04:34;100511.94;;;17.25
63588;BMP280;49966;46.896;18.004;2023-09-18T00:07:03;100508.06;;;17.26
63588;BMP280;49966;46.896;18.004;2023-09-18T00:09:31;100500.03;;;17.26
63588;BMP280;49966;46.896;18.004;2023-09-18T00:12:00;100493.19;;;17.25
63588;BMP280;49966;46.896;18.004;2023-09-18T00:14:28;100496.97;;;17.24
63588;BMP280;49966;46.896;18.004;2023-09-18T00:16:58;100501.22;;;17.25
63588;BMP280;49966;46.896;18.004;2023-09-18T00:19:27;100498.13;;;17.23
63588;BMP280;49966;46.896;18.004;2023-09-18T00:21:56;100497.38;;;17.19
63588;BMP280;49966;46.896;18.004;2023-09-18T00:24:28;100483.56;;;17.20
63588;BMP280;49966;46.896;18.004;2023-09-18T00:26:56;100469.81;;;17.18
63588;BMP280;49966;46.896;18.004;2023-09-18T00:29:24;100483.97;;;17.19
63588;BMP280;49966;46.896;18.004;2023-09-18T00:31:53;100467.91;;;17.15
63588;BMP280;49966;46.896;18.004;2023-09-18T00:34:23;100466.00;;;17.12
63588;BMP280;49966;46.896;18.004;2023-09-18T00:36:51;100460.63;;;17.05
63588;BMP280;49966;46.896;18.004;2023-09-18T00:39:19;100446.06;;;17.06
63588;BMP280;49966;46.896;18.004;2023-09-18T00:41:47;100436.91;;;17.03
63588;BMP280;49966;46.896;18.004;2023-09-18T00:44:20;100434.63;;;17.02
63588;BMP280;49966;46.896;18.004;2023-09-18T00:46:49;100439.19;;;17.05
63588;BMP280;49966;46.896;18.004;2023-09-18T00:49:18;100432.72;;;16.99
63588;BMP280;49966;46.896;18.004;2023-09-18T00:51:50;100447.63;;;17.00
63588;BMP280;49966;46.896;18.004;2023-09-18T00:54:19;100441.13;;;17.04
63588;BMP280;49966;46.896;18.004;2023-09-18T00:56:47;100445.34;;;17.09
63588;BMP280;49966;46.896;18.004;2023-09-18T00:59:21;100443.78;;;17.12
63588;BMP280;49966;46.896;18.004;2023-09-18T01:01:49;100441.13;;;17.15
63588;BMP280;49966;46.896;18.004;2023-09-18T01:04:18;100446.44;;;17.19
63588;BMP280;49966;46.896;18.004;2023-09-18T01:06:48;100439.94;;;17.23
63588;BMP280;49966;46.896;18.004;2023-09-18T01:09:18;100445.31;;;17.27
63588;BMP280;49966;46.896;18.004;2023-09-18T01:11:51;100429.94;;;17.31
63588;BMP280;49966;46.896;18.004;2023-09-18T01:14:29;100434.94;;;17.32
63588;BMP280;49966;46.896;18.004;2023-09-18T01:17:00;100434.53;;;17.34
63588;BMP280;49966;46.896;18.004;2023-09-18T01:19:36;100430.31;;;17.37
63588;BMP280;49966;46.896;18.004;2023-09-18T01:22:07;100426.09;;;17.39
63588;BMP280;49966;46.896;18.004;2023-09-18T01:24:38;100437.22;;;17.45
63588;BMP280;49966;46.896;18.004;2023-09-18T01:27:08;100436.44;;;17.48
63588;BMP280;49966;46.896;18.004;2023-09-18T01:29:36;100442.56;;;17.48
63588;BMP280;49966;46.896;18.004;2023-09-18T01:32:05;100452.91;;;17.50
63588;BMP280;49966;46.896;18.004;2023-09-18T01:34:36;100442.16;;;17.46
63588;BMP280;49966;46.896;18.004;2023-09-18T01:37:07;100435.31;;;17.45
63588;BMP280;49966;46.896;18.004;2023-09-18T01:39:39;100445.59;;;17.54
63588;BMP280;49966;46.896;18.004;2023-09-18T01:42:07;100441.75;;;17.58
63588;BMP280;49966;46.896;18.004;2023-09-18T01:44:37;100437.94;;;17.59
63588;BMP280;49966;46.896;18.004;2023-09-18T01:47:07;100440.63;;;17.59
63588;BMP280;49966;46.896;18.004;2023-09-18T01:49:37;100442.53;;;17.59
63588;BMP280;49966;46.896;18.004;2023-09-18T01:52:07;100445.97;;;17.56
63588;BMP280;49966;46.896;18.004;2023-09-18T01:54:36;100433.72;;;17.58
63588;BMP280;49966;46.896;18.004;2023-09-18T01:57:06;100430.66;;;17.60
63588;BMP280;49966;46.896;18.004;2023-09-18T01:59:34;100441.34;;;17.64
63588;BMP280;49966;46.896;18.004;2023-09-18T02:02:05;100432.56;;;17.63
63588;BMP280;49966;46.896;18.004;2023-09-18T02:04:35;100426.78;;;17.61
63588;BMP280;49966;46.896;18.004;2023-09-18T02:07:24;100439.44;;;17.60
63588;BMP280;49966;46.896;18.004;2023-09-18T02:09:52;100439.47;;;17.57
63588;BMP280;49966;46.896;18.004;2023-09-18T02:12:22;100424.91;;;17.58
63588;BMP280;49966;46.896;18.004;2023-09-18T02:14:50;100422.25;;;17.54
63588;BMP280;49966;46.896;18.004;2023-09-18T02:17:19;100417.63;;;17.51
63588;BMP280;49966;46.896;18.004;2023-09-18T02:19:47;100421.50;;;17.47
63588;BMP280;49966;46.896;18.004;2023-09-18T02:22:16;100408.50;;;17.45
63588;BMP280;49966;46.896;18.004;2023-09-18T02:24:44;100418.06;;;17.43
63588;BMP280;49966;46.896;18.004;2023-09-18T02:27:13;100406.59;;;17.39
63588;BMP280;49966;46.896;18.004;2023-09-18T02:29:46;100400.88;;;17.33
63588;BMP280;49966;46.896;18.004;2023-09-18T02:32:17;100398.97;;;17.30
63588;BMP280;49966;46.896;18.004;2023-09-18T02:34:46;100386.72;;;17.25
63588;BMP280;49966;46.896;18.004;2023-09-18T02:37:14;100380.25;;;17.19
63588;BMP280;49966;46.896;18.004;2023-09-18T02:39:43;100374.88;;;17.12
63588;BMP280;49966;46.896;18.004;2023-09-18T02:42:11;100364.16;;;17.08
63588;BMP280;49966;46.896;18.004;2023-09-18T02:44:39;100356.13;;;17.05
63588;BMP280;49966;46.896;18.004;2023-09-18T02:47:09;100347.72;;;17.03
63588;BMP280;49966;46.896;18.004;2023-09-18T02:49:37;100358.84;;;17.01
63588;BMP280;49966;46.896;18.004;2023-09-18T02:52:06;100350.00;;;17.01
63588;BMP280;49966;46.896;18.004;2023-09-18T02:54:34;100350.41;;;17.03
63588;BMP280;49966;46.896;18.004;2023-09-18T02:57:03;100356.53;;;17.07
63588;BMP280;49966;46.896;18.004;2023-09-18T02:59:31;100349.66;;;17.10
63588;BMP280;49966;46.896;18.004;2023-09-18T03:02:00;100362.63;;;17.11
63588;BMP280;49966;46.896;18.004;2023-09-18T03:04:31;100358.41;;;17.14
63588;BMP280;49966;46.896;18.004;2023-09-18T03:06:59;100366.09;;;17.12
63588;BMP280;49966;46.896;18.004;2023-09-18T03:09:28;100361.50;;;17.08
63588;BMP280;49966;46.896;18.004;2023-09-18T03:11:57;100353.44;;;17.05
63588;BMP280;49966;46.896;18.004;2023-09-18T03:14:26;100349.66;;;17.02
63588;BMP280;49966;46.896;18.004;2023-09-18T03:16:54;100348.13;;;16.98
63588;BMP280;49966;46.896;18.004;2023-09-18T03:19:23;100351.97;;;16.97
63588;BMP280;49966;46.896;18.004;2023-09-18T03:21:52;100337.44;;;16.94
63588;BMP280;49966;46.896;18.004;2023-09-18T03:24:21;100345.44;;;16.91
63588;BMP280;49966;46.896;18.004;2023-09-18T03:26:49;100340.88;;;16.88
63588;BMP280;49966;46.896;18.004;2023-09-18T03:29:17;100340.13;;;16.84
63588;BMP280;49966;46.896;18.004;2023-09-18T03:31:46;100341.63;;;16.85
63588;BMP280;49966;46.896;18.004;2023-09-18T03:34:14;100339.75;;;16.81
63588;BMP280;49966;46.896;18.004;2023-09-18T03:36:43;100342.44;;;16.81
63588;BMP280;49966;46.896;18.004;2023-09-18T03:39:13;100341.25;;;16.83
63588;BMP280;49966;46.896;18.004;2023-09-18T03:41:40;100347.03;;;16.81
63588;BMP280;49966;46.896;18.004;2023-09-18T03:44:10;100337.47;;;16.76
63588;BMP280;49966;46.896;18.004;2023-09-18T03:46:38;100346.63;;;16.75
63588;BMP280;49966;46.896;18.004;2023-09-18T03:49:07;100342.41;;;16.74
63588;BMP280;49966;46.896;18.004;2023-09-18T03:51:35;100339.00;;;16.74
63588;BMP280;49966;46.896;18.004;2023-09-18T03:54:03;100337.47;;;16.76
63588;BMP280;49966;46.896;18.004;2023-09-18T03:56:33;100327.53;;;16.73
63588;BMP280;49966;46.896;18.004;2023-09-18T03:59:02;100329.41;;;16.69
63588;BMP280;49966;46.896;18.004;2023-09-18T04:01:31;100317.94;;;16.65
63588;BMP280;49966;46.896;18.004;2023-09-18T04:04:00;100319.13;;;16.61
63588;BMP280;49966;46.896;18.004;2023-09-18T04:06:42;100314.91;;;16.56
63588;BMP280;49966;46.896;18.004;2023-09-18T04:09:10;100319.88;;;16.54
63588;BMP280;49966;46.896;18.004;2023-09-18T04:11:40;100318.72;;;16.55
63588;BMP280;49966;46.896;18.004;2023-09-18T04:14:09;100312.25;;;16.56
63588;BMP280;49966;46.896;18.004;2023-09-18T04:16:37;100302.25;;;16.53
63588;BMP280;49966;46.896;18.004;2023-09-18T04:19:08;100304.59;;;16.51
63588;BMP280;49966;46.896;18.004;2023-09-18T04:21:38;100294.22;;;16.53
63588;BMP280;49966;46.896;18.004;2023-09-18T04:24:06;100300.38;;;16.57
63588;BMP280;49966;46.896;18.004;2023-09-18T04:26:35;100308.41;;;16.53
63588;BMP280;49966;46.896;18.004;2023-09-18T04:29:06;100297.34;;;16.51
63588;BMP280;49966;46.896;18.004;2023-09-18T04:31:34;100293.50;;;16.49
63588;BMP280;49966;46.896;18.004;2023-09-18T04:34:03;100293.50;;;16.49
63588;BMP280;49966;46.896;18.004;2023-09-18T04:36:31;100301.53;;;16.49
63588;BMP280;49966;46.896;18.004;2023-09-18T04:39:00;100306.13;;;16.48
63588;BMP280;49966;46.896;18.004;2023-09-18T04:41:31;100314.16;;;16.48
63588;BMP280;49966;46.896;18.004;2023-09-18T04:43:59;100290.81;;;16.49
63588;BMP280;49966;46.896;18.004;2023-09-18T04:46:29;100281.28;;;16.51
63588;BMP280;49966;46.896;18.004;2023-09-18T04:48:58;100312.22;;;16.49
63588;BMP280;49966;46.896;18.004;2023-09-18T04:51:26;100290.81;;;16.52
63588;BMP280;49966;46.896;18.004;2023-09-18T04:53:54;100288.91;;;16.49
63588;BMP280;49966;46.896;18.004;2023-09-18T04:56:23;100298.09;;;16.52
63588;BMP280;49966;46.896;18.004;2023-09-18T04:58:53;100288.53;;;16.51
63588;BMP280;49966;46.896;18.004;2023-09-18T05:01:21;100292.75;;;16.48
63588;BMP280;49966;46.896;18.004;2023-09-18T05:03:53;100290.44;;;16.43
63588;BMP280;49966;46.896;18.004;2023-09-18T05:06:21;100291.22;;;16.44
63588;BMP280;49966;46.896;18.004;2023-09-18T05:08:50;100295.00;;;16.43
63588;BMP280;49966;46.896;18.004;2023-09-18T05:11:21;100289.28;;;16.44
63588;BMP280;49966;46.896;18.004;2023-09-18T05:13:49;100298.84;;;16.56
63588;BMP280;49966;46.896;18.004;2023-09-18T05:16:18;100309.53;;;16.67
63588;BMP280;49966;46.896;18.004;2023-09-18T05:18:46;100323.31;;;16.72
63588;BMP280;49966;46.896;18.004;2023-09-18T05:21:16;100303.03;;;16.78
63588;BMP280;49966;46.896;18.004;2023-09-18T05:23:49;100317.94;;;16.87
63588;BMP280;49966;46.896;18.004;2023-09-18T05:26:17;100326.34;;;16.89
63588;BMP280;49966;46.896;18.004;2023-09-18T05:28:46;100324.41;;;16.96
63588;BMP280;49966;46.896;18.004;2023-09-18T05:31:14;100322.06;;;17.05
63588;BMP280;49966;46.896;18.004;2023-09-18T05:33:43;100314.06;;;17.09
63588;BMP280;49966;46.896;18.004;2023-09-18T05:36:12;100315.16;;;17.15
63588;BMP280;49966;46.896;18.004;2023-09-18T05:38:42;100309.78;;;17.19
63588;BMP280;49966;46.896;18.004;2023-09-18T05:41:11;100315.88;;;17.30
63588;BMP280;49966;46.896;18.004;2023-09-18T05:43:39;100313.50;;;17.43
63588;BMP280;49966;46.896;18.004;2023-09-18T05:46:08;100329.19;;;17.55
63588;BMP280;49966;46.896;18.004;2023-09-18T05:48:37;100329.09;;;17.66
63588;BMP280;49966;46.896;18.004;2023-09-18T05:51:05;100337.81;;;17.77
63588;BMP280;49966;46.896;18.004;2023-09-18T05:53:34;100342.78;;;17.82
63588;BMP280;49966;46.896;18.004;2023-09-18T05:56:04;100358.06;;;17.92
63588;BMP280;49966;46.896;18.004;2023-09-18T05:58:33;100361.88;;;17.98
63588;BMP280;49966;46.896;18.004;2023-09-18T06:01:02;100377.13;;;18.05
63588;BMP280;49966;46.896;18.004;2023-09-18T06:03:30;100378.63;;;18.09
63588;BMP280;49966;46.896;18.004;2023-09-18T06:06:03;100383.59;;;18.18
63588;BMP280;49966;46.896;18.004;2023-09-18T06:08:31;100401.94;;;18.20
63588;BMP280;49966;46.896;18.004;2023-09-18T06:11:00;100395.00;;;18.33
63588;BMP280;49966;46.896;18.004;2023-09-18T06:13:30;100408.00;;;18.34
63588;BMP280;49966;46.896;18.004;2023-09-18T06:15:58;100398.81;;;18.32
63588;BMP280;49966;46.896;18.004;2023-09-18T06:18:26;100393.34;;;18.46
63588;BMP280;49966;46.896;18.004;2023-09-18T06:20:54;100393.25;;;18.57
63588;BMP280;49966;46.896;18.004;2023-09-18T06:23:23;100397.06;;;18.59
63588;BMP280;49966;46.896;18.004;2023-09-18T06:25:51;100390.00;;;18.76
63588;BMP280;49966;46.896;18.004;2023-09-18T06:28:23;100402.13;;;18.91
63588;BMP280;49966;46.896;18.004;2023-09-18T06:30:53;100408.16;;;19.03
63588;BMP280;49966;46.896;18.004;2023-09-18T06:33:22;100407.88;;;19.28
63588;BMP280;49966;46.896;18.004;2023-09-18T06:35:50;100435.03;;;19.98
63588;BMP280;49966;46.896;18.004;2023-09-18T06:38:20;100446.00;;;21.60
63588;BMP280;49966;46.896;18.004;2023-09-18T06:40:48;100475.53;;;23.36
63588;BMP280;49966;46.896;18.004;2023-09-18T06:43:17;100488.91;;;24.76
63588;BMP280;49966;46.896;18.004;2023-09-18T06:45:46;100486.63;;;24.96
63588;BMP280;49966;46.896;18.004;2023-09-18T06:48:15;100482.91;;;25.43
63588;BMP280;49966;46.896;18.004;2023-09-18T06:50:44;100491.41;;;25.14
63588;BMP280;49966;46.896;18.004;2023-09-18T06:53:12;100478.97;;;25.84
63588;BMP280;49966;46.896;18.004;2023-09-18T06:55:41;100479.00;;;26.67
63588;BMP280;49966;46.896;18.004;2023-09-18T06:58:09;100475.69;;;26.72
63588;BMP280;49966;46.896;18.004;2023-09-18T07:00:37;100468.09;;;26.85
63588;BMP280;49966;46.896;18.004;2023-09-18T07:03:06;100461.31;;;26.07
63588;BMP280;49966;46.896;18.004;2023-09-18T07:05:39;100459.03;;;25.78
63588;BMP280;49966;46.896;18.004;2023-09-18T07:08:09;100463.22;;;25.52
63588;BMP280;49966;46.896;18.004;2023-09-18T07:10:39;100459.44;;;25.49
63588;BMP280;49966;46.896;18.004;2023-09-18T07:13:08;100451.97;;;25.01
63588;BMP280;49966;46.896;18.004;2023-09-18T07:15:36;100452.09;;;24.97
63588;BMP280;49966;46.896;18.004;2023-09-18T07:18:04;100461.25;;;24.90
63588;BMP280;49966;46.896;18.004;2023-09-18T07:20:33;100477.69;;;24.52
63588;BMP280;49966;46.896;18.004;2023-09-18T07:23:04;100468.31;;;24.31
63588;BMP280;49966;46.896;18.004;2023-09-18T07:25:33;100469.44;;;24.21
63588;BMP280;49966;46.896;18.004;2023-09-18T07:28:02;100466.13;;;24.04
63588;BMP280;49966;46.896;18.004;2023-09-18T07:30:30;100468.81;;;23.92
63588;BMP280;49966;46.896;18.004;2023-09-18T07:32:59;100482.38;;;23.66
63588;BMP280;49966;46.896;18.004;2023-09-18T07:35:28;100483.25;;;23.63
63588;BMP280;49966;46.896;18.004;2023-09-18T07:37:57;100471.72;;;23.21
63588;BMP280;49966;46.896;18.004;2023-09-18T07:40:27;100483.88;;;23.42
63588;BMP280;49966;46.896;18.004;2023-09-18T07:42:55;100472.31;;;23.54
63588;BMP280;49966;46.896;18.004;2023-09-18T07:45:23;100475.03;;;23.54
63588;BMP280;49966;46.896;18.004;2023-09-18T07:47:52;100468.44;;;23.42
63588;BMP280;49966;46.896;18.004;2023-09-18T07:50:21;100476.00;;;23.35
63588;BMP280;49966;46.896;18.004;2023-09-18T07:52:49;100471.22;;;23.51
63588;BMP280;49966;46.896;18.004;2023-09-18T07:55:17;100476.63;;;23.51
63588;BMP280;49966;46.896;18.004;2023-09-18T07:57:47;100475.16;;;23.50
63588;BMP280;49966;46.896;18.004;2023-09-18T08:00:17;100475.78;;;23.54
63588;BMP280;49966;46.896;18.004;2023-09-18T08:02:45;100464.28;;;23.38
63588;BMP280;49966;46.896;18.004;2023-09-18T08:05:16;100472.41;;;23.38
63588;BMP280;49966;46.896;18.004;2023-09-18T08:07:45;100472.75;;;23.27
63588;BMP280;49966;46.896;18.004;2023-09-18T08:10:15;100450.41;;;23.36
63588;BMP280;49966;46.896;18.004;2023-09-18T08:12:43;100463.09;;;23.39
63588;BMP280;49966;46.896;18.004;2023-09-18T08:15:13;100457.28;;;23.53
63588;BMP280;49966;46.896;18.004;2023-09-18T08:17:41;100463.03;;;23.68
63588;BMP280;49966;46.896;18.004;2023-09-18T08:20:11;100447.38;;;23.84
63588;BMP280;49966;46.896;18.004;2023-09-18T08:22:42;100453.63;;;24.07
63588;BMP280;49966;46.896;18.004;2023-09-18T08:25:11;100457.91;;;24.30
63588;BMP280;49966;46.896;18.004;2023-09-18T08:27:40;100454.50;;;24.51
63588;BMP280;49966;46.896;18.004;2023-09-18T08:30:14;100459.34;;;24.78
63588;BMP280;49966;46.896;18.004;2023-09-18T08:32:44;100449.69;;;24.99
63588;BMP280;49966;46.896;18.004;2023-09-18T08:35:13;100466.63;;;25.12
63588;BMP280;49966;46.896;18.004;2023-09-18T08:37:42;100446.75;;;25.15
63588;BMP280;49966;46.896;18.004;2023-09-18T08:40:11;100445.81;;;25.09
63588;BMP280;49966;46.896;18.004;2023-09-18T08:42:45;100444.31;;;25.08
63588;BMP280;49966;46.896;18.004;2023-09-18T08:45:21;100450.09;;;25.19
63588;BMP280;49966;46.896;18.004;2023-09-18T08:47:51;100445.03;;;25.40
63588;BMP280;49966;46.896;18.004;2023-09-18T08:50:21;100446.81;;;25.24
63588;BMP280;49966;46.896;18.004;2023-09-18T08:52:50;100454.53;;;25.35
63588;BMP280;49966;46.896;18.004;2023-09-18T08:55:18;100433.03;;;25.19
63588;BMP280;49966;46.896;18.004;2023-09-18T08:57:47;100442.53;;;25.14
63588;BMP280;49966;46.896;18.004;2023-09-18T09:00:18;100436.31;;;25.05
63588;BMP280;49966;46.896;18.004;2023-09-18T09:02:46;100443.59;;;25.17
63588;BMP280;49966;46.896;18.004;2023-09-18T09:05:18;100436.72;;;25.03
63588;BMP280;49966;46.896;18.004;2023-09-18T09:07:47;100444.88;;;25.03
63588;BMP280;49966;46.896;18.004;2023-09-18T09:10:16;100443.94;;;25.28
63588;BMP280;49966;46.896;18.004;2023-09-18T09:12:56;100438.53;;;25.06
63588;BMP280;49966;46.896;18.004;2023-09-18T09:15:28;100422.75;;;25.14
63588;BMP280;49966;46.896;18.004;2023-09-18T09:18:04;100418.00;;;24.96
63588;BMP280;49966;46.896;18.004;2023-09-18T09:20:33;100414.41;;;24.99
63588;BMP280;49966;46.896;18.004;2023-09-18T09:23:04;100427.75;;;24.84
63588;BMP280;49966;46.896;18.004;2023-09-18T09:25:34;100410.31;;;24.94
63588;BMP280;49966;46.896;18.004;2023-09-18T09:28:05;100402.50;;;24.96
63588;BMP280;49966;46.896;18.004;2023-09-18T09:30:36;100409.50;;;25.16
63588;BMP280;49966;46.896;18.004;2023-09-18T09:33:05;100419.63;;;25.15
63588;BMP280;49966;46.896;18.004;2023-09-18T09:35:36;100415.25;;;25.18
63588;BMP280;49966;46.896;18.004;2023-09-18T09:38:10;100410.47;;;25.31
63588;BMP280;49966;46.896;18.004;2023-09-18T09:40:40;100410.72;;;25.24
63588;BMP280;49966;46.896;18.004;2023-09-18T09:43:11;100399.63;;;25.40
63588;BMP280;49966;46.896;18.004;2023-09-18T09:45:45;100406.31;;;25.58
63588;BMP280;49966;46.896;18.004;2023-09-18T09:48:14;100414.03;;;25.59
63588;BMP280;49966;46.896;18.004;2023-09-18T09:50:47;100419.06;;;25.70
63588;BMP280;49966;46.896;18.004;2023-09-18T09:53:16;100403.94;;;25.78
63588;BMP280;49966;46.896;18.004;2023-09-18T09:55:53;100400.63;;;25.92
63588;BMP280;49966;46.896;18.004;2023-09-18T09:58:26;100405.47;;;26.16
63588;BMP280;49966;46.896;18.004;2023-09-18T10:01:03;100401.84;;;26.37
63588;BMP280;49966;46.896;18.004;2023-09-18T10:03:36;100396.63;;;26.57
63588;BMP280;49966;46.896;18.004;2023-09-18T10:06:06;100385.41;;;26.83
63588;BMP280;49966;46.896;18.004;2023-09-18T10:08:39;100381.19;;;27.15
63588;BMP280;49966;46.896;18.004;2023-09-18T10:11:09;100385.88;;;27.38
63588;BMP280;49966;46.896;18.004;2023-09-18T10:13:47;100368.75;;;27.62
63588;BMP280;49966;46.896;18.004;2023-09-18T10:16:18;100370.03;;;27.75
63588;BMP280;49966;46.896;18.004;2023-09-18T10:18:56;100373.13;;;27.83
63588;BMP280;49966;46.896;18.004;2023-09-18T10:21:35;100358.28;;;27.84
63588;BMP280;49966;46.896;18.004;2023-09-18T10:24:10;100385.19;;;27.91
63588;BMP280;49966;46.896;18.004;2023-09-18T10:26:51;100363.75;;;27.99
63588;BMP280;49966;46.896;18.004;2023-09-18T10:29:23;100366.03;;;28.00
63588;BMP280;49966;46.896;18.004;2023-09-18T10:31:53;100366.75;;;28.01
63588;BMP280;49966;46.896;18.004;2023-09-18T10:34:23;100358.69;;;28.06
63588;BMP280;49966;46.896;18.004;2023-09-18T10:36:52;100364.72;;;28.10
63588;BMP280;49966;46.896;18.004;2023-09-18T10:39:24;100355.66;;;28.19
63588;BMP280;49966;46.896;18.004;2023-09-18T10:42:00;100362.66;;;28.20
63588;BMP280;49966;46.896;18.004;2023-09-18T10:44:30;100359.91;;;28.20
63588;BMP280;49966;46.896;18.004;2023-09-18T10:47:02;100376.28;;;28.20
63588;BMP280;49966;46.896;18.004;2023-09-18T10:49:33;100361.03;;;28.13
63588;BMP280;49966;46.896;18.004;2023-09-18T10:52:02;100354.47;;;28.20
63588;BMP280;49966;46.896;18.004;2023-09-18T10:54:31;100347.47;;;28.19
63588;BMP280;49966;46.896;18.004;2023-09-18T10:57:01;100358.09;;;28.17
63588;BMP280;49966;46.896;18.004;2023-09-18T10:59:30;100336.13;;;28.06
63588;BMP280;49966;46.896;18.004;2023-09-18T11:02:03;100341.38;;;27.95
63588;BMP280;49966;46.896;18.004;2023-09-18T11:04:33;100326.59;;;27.86
63588;BMP280;49966;46.896;18.004;2023-09-18T11:07:04;100318.72;;;27.88
63588;BMP280;49966;46.896;18.004;2023-09-18T11:09:43;100323.13;;;27.71
63588;BMP280;49966;46.896;18.004;2023-09-18T11:12:14;100318.41;;;27.72
63588;BMP280;49966;46.896;18.004;2023-09-18T11:14:44;100326.59;;;27.86
63588;BMP280;49966;46.896;18.004;2023-09-18T11:17:32;100314.59;;;27.93
63588;BMP280;49966;46.896;18.004;2023-09-18T11:20:06;100314.94;;;27.86
63588;BMP280;49966;46.896;18.004;2023-09-18T11:22:45;100297.22;;;27.91
63588;BMP280;49966;46.896;18.004;2023-09-18T11:25:44;100293.22;;;27.92
63588;BMP280;49966;46.896;18.004;2023-09-18T11:28:16;100293.91;;;28.01
63588;BMP280;49966;46.896;18.004;2023-09-18T11:30:51;100317.03;;;28.06
63588;BMP280;49966;46.896;18.004;2023-09-18T11:33:33;100289.69;;;28.15
63588;BMP280;49966;46.896;18.004;2023-09-18T11:36:06;100288.63;;;28.27
63588;BMP280;49966;46.896;18.004;2023-09-18T11:38:52;100295.19;;;28.35
63588;BMP280;49966;46.896;18.004;2023-09-18T11:41:24;100280.47;;;28.47
63588;BMP280;49966;46.896;18.004;2023-09-18T11:44:33;100287.72;;;28.51
63588;BMP280;49966;46.896;18.004;2023-09-18T11:47:09;100269.19;;;28.55
63588;BMP280;49966;46.896;18.004;2023-09-18T11:49:49;100277.78;;;28.68
63588;BMP280;49966;46.896;18.004;2023-09-18T11:52:22;100276.94;;;28.76
63588;BMP280;49966;46.896;18.004;2023-09-18T11:54:52;100274.75;;;28.81
63588;BMP280;49966;46.896;18.004;2023-09-18T11:57:21;100281.31;;;28.89
63588;BMP280;49966;46.896;18.004;2023-09-18T11:59:50;100280.63;;;28.94
63588;BMP280;49966;46.896;18.004;2023-09-18T12:02:26;100268.94;;;28.93
63588;BMP280;49966;46.896;18.004;2023-09-18T12:05:10;100268.38;;;28.89
63588;BMP280;49966;46.896;18.004;2023-09-18T12:07:39;100262.38;;;28.85
63588;BMP280;49966;46.896;18.004;2023-09-18T12:10:11;100263.09;;;28.65
63588;BMP280;49966;46.896;18.004;2023-09-18T12:12:41;100250.22;;;28.66
63588;BMP280;49966;46.896;18.004;2023-09-18T12:15:11;100237.69;;;28.74
63588;BMP280;49966;46.896;18.004;2023-09-18T12:17:39;100248.38;;;28.77
63588;BMP280;49966;46.896;18.004;2023-09-18T12:20:16;100240.28;;;28.83
63588;BMP280;49966;46.896;18.004;2023-09-18T12:22:47;100226.84;;;28.79
63588;BMP280;49966;46.896;18.004;2023-09-18T12:25:17;100238.41;;;28.74
63588;BMP280;49966;46.896;18.004;2023-09-18T12:27:46;100233.59;;;28.84
63588;BMP280;49966;46.896;18.004;2023-09-18T12:30:19;100229.25;;;28.77
63588;BMP280;49966;46.896;18.004;2023-09-18T12:32:51;100226.84;;;28.79
63588;BMP280;49966;46.896;18.004;2023-09-18T12:35:21;100222.78;;;28.75
63588;BMP280;49966;46.896;18.004;2023-09-18T12:37:52;100223.09;;;28.77
63588;BMP280;49966;46.896;18.004;2023-09-18T12:40:22;100211.63;;;28.73
63588;BMP280;49966;46.896;18.004;2023-09-18T12:42:51;100221.31;;;28.74
63588;BMP280;49966;46.896;18.004;2023-09-18T12:45:21;100222.16;;;28.65
63588;BMP280;49966;46.896;18.004;2023-09-18T12:47:50;100196.13;;;28.64
63588;BMP280;49966;46.896;18.004;2023-09-18T12:50:20;100201.53;;;28.59
63588;BMP280;49966;46.896;18.004;2023-09-18T12:52:48;100195.50;;;28.55
63588;BMP280;49966;46.896;18.004;2023-09-18T12:55:21;100195.72;;;28.51
63588;BMP280;49966;46.896;18.004;2023-09-18T12:57:51;100194.38;;;28.61
63588;BMP280;49966;46.896;18.004;2023-09-18T13:00:21;100187.31;;;28.55
63588;BMP280;49966;46.896;18.004;2023-09-18T13:02:50;100194.41;;;28.67
63588;BMP280;49966;46.896;18.004;2023-09-18T13:05:24;100174.00;;;28.62
63588;BMP280;49966;46.896;18.004;2023-09-18T13:07:54;100181.78;;;28.69
63588;BMP280;49966;46.896;18.004;2023-09-18T13:10:23;100166.16;;;28.70
63588;BMP280;49966;46.896;18.004;2023-09-18T13:12:55;100182.53;;;28.70
63588;BMP280;49966;46.896;18.004;2023-09-18T13:15:26;100185.97;;;28.65
63588;BMP280;49966;46.896;18.004;2023-09-18T13:17:57;100177.03;;;28.64
63588;BMP280;49966;46.896;18.004;2023-09-18T13:20:28;100192.09;;;28.60
63588;BMP280;49966;46.896;18.004;2023-09-18T13:22:59;100182.94;;;28.63
63588;BMP280;49966;46.896;18.004;2023-09-18T13:25:32;100177.69;;;28.59
63588;BMP280;49966;46.896;18.004;2023-09-18T13:28:02;100169.81;;;28.61
63588;BMP280;49966;46.896;18.004;2023-09-18T13:30:31;100181.00;;;28.63
63588;BMP280;49966;46.896;18.004;2023-09-18T13:33:03;100159.91;;;28.64
63588;BMP280;49966;46.896;18.004;2023-09-18T13:35:35;100181.53;;;28.67
63588;BMP280;49966;46.896;18.004;2023-09-18T13:38:05;100162.59;;;28.58
63588;BMP280;49966;46.896;18.004;2023-09-18T13:40:35;100157.38;;;28.60
63588;BMP280;49966;46.896;18.004;2023-09-18T13:43:04;100154.19;;;28.62
63588;BMP280;49966;46.896;18.004;2023-09-18T13:45:33;100149.69;;;28.59
63588;BMP280;49966;46.896;18.004;2023-09-18T13:48:02;100142.69;;;28.58
63588;BMP280;49966;46.896;18.004;2023-09-18T13:50:32;100149.88;;;28.55
63588;BMP280;49966;46.896;18.004;2023-09-18T13:53:02;100143.19;;;28.56
63588;BMP280;49966;46.896;18.004;2023-09-18T13:55:32;100152.13;;;28.57
63588;BMP280;49966;46.896;18.004;2023-09-18T13:58:02;100147.75;;;28.44
63588;BMP280;49966;46.896;18.004;2023-09-18T14:00:31;100150.78;;;28.46
63588;BMP280;49966;46.896;18.004;2023-09-18T14:03:00;100140.13;;;28.48